This is the latest recevied weather packets stored in our database for station/object OM8AKX-12. If no packets are shown the sender has not sent any weather packets the latest 10 day(s).
| Time | Temp. | Humidity | Pressure | Rain* | Wind** | Luminosity | Snow |
|---|---|---|---|---|---|---|---|
| 1777320565 | 8.89° C | 43% | 1015.6 hPa | - | - | - | - |
| 1777319665 | 8.33° C | 49% | 1015.7 hPa | - | - | - | - |
| 1777318765 | 7.78° C | 51% | 1015.6 hPa | - | - | - | - |
| 1777317865 | 7.78° C | 49% | 1015.5 hPa | - | - | - | - |
| 1777316965 | 8.89° C | 47% | 1015.4 hPa | - | - | - | - |
| 1777316065 | 7.78° C | 51% | 1015.2 hPa | - | - | - | - |
| 1777315165 | 7.78° C | 52% | 1015.1 hPa | - | - | - | - |
| 1777314265 | 8.33° C | 48% | 1014.9 hPa | - | - | - | - |
| 1777313364 | 8.89° C | 45% | 1014.7 hPa | - | - | - | - |
| 1777312464 | 10° C | 43% | 1014.5 hPa | - | - | - | - |
| 1777311565 | 10° C | 45% | 1014.5 hPa | - | - | - | - |
| 1777309765 | 12.78° C | 37% | 1014.2 hPa | - | - | - | - |
| 1777308865 | 13.33° C | 35% | 1014.2 hPa | - | - | - | - |
| 1777307064 | 17.78° C | 23% | 1014 hPa | - | - | - | - |
| 1777306165 | 20.56° C | 21% | 1014 hPa | - | - | - | - |
| 1777305264 | 20° C | 22% | 1014.1 hPa | - | - | - | - |
| 1777304364 | 20° C | 21% | 1014.2 hPa | - | - | - | - |
| 1777303464 | 20.56° C | 21% | 1014.2 hPa | - | - | - | - |
| 1777302564 | 20° C | 21% | 1014.4 hPa | - | - | - | - |
| 1777301664 | 20.56° C | 21% | 1014.4 hPa | - | - | - | - |
| 1777300764 | 20° C | 21% | 1014.7 hPa | - | - | - | - |
| 1777299863 | 20° C | 21% | 1014.7 hPa | - | - | - | - |
| 1777298963 | 19.44° C | 20% | 1014.8 hPa | - | - | - | - |
| 1777298063 | 19.44° C | 21% | 1015.1 hPa | - | - | - | - |
| 1777297163 | 20° C | 21% | 1015.3 hPa | - | - | - | - |
* Rain since midnight (hover to see other rain measurements)
** Current wind speed in m/s (hover to see current wind gust speed)